Latest Coastal Weather Observations for Cape Grim

IDV60701

Issued at 2:25 pm EST Thursday 24 July 2014 (issued every 10 minutes, with the page automatically refreshed every 10 minutes)

About coastal observations | Map of coastal stations | Coastal observations for VIC | Marine services | Other Formats
Station Details ID: 091331 Name: CAPE GRIM Lat: -40.68 Lon: 144.69 Height: 86.0 m
Data from the previous 72 hours. | See also: Recent months at Cape Grim
Date/Time
EST
Temp

°C
Wind Pressure Rain
since 9am
mm
Weather Cloud Vis
km
Sea
Height
m
Swell
Dir
 
Speed
knots
Gust
knots
hPa Trend Height
m
Period
s
Dir
24/02:21pm 11.8 E 19 23 1014.6 - 0.0 - Partly cloudy - - - - -
24/02:00pm 11.9 ENE 15 20 1014.8 - 0.0 - Partly cloudy - - - - -
24/01:30pm 12.2 ENE 18 23 1015.1 - 0.0 - Partly cloudy - - - - -
24/01:02pm 12.1 ENE 17 21 1015.4 - 0.0 - Partly cloudy - - - - -
24/01:00pm 12.2 ENE 17 21 1015.6 - 0.0 - Partly cloudy - - - - -
24/12:30pm 12.5 ENE 18 22 1015.7 - 0.0 - Partly cloudy - - - - -
24/12:00pm 12.8 ENE 18 23 1016.1 - 0.0 - Mostly cloudy - - - - -
24/11:30am 13.4 ENE 18 24 1016.3 - 0.0 - - - - - - -
24/11:00am 13.1 ENE 18 24 1016.7 - 0.0 - - - - - - -
24/10:30am 12.4 NE 17 21 1016.9 - 0.0 - Partly cloudy - - - - -
24/10:00am 12.1 NE 17 20 1017.2 - 0.0 - Partly cloudy - - - - -
24/09:30am 12.2 NE 16 20 1017.0 - 0.0 - Partly cloudy - - - - -
24/09:00am 11.4 ENE 15 19 1016.9 - 0.0 - Cloudy - - - - -
24/08:30am 10.9 NE 14 17 1016.7 - 0.0 - - - - - - -
24/08:00am 10.7 NE 15 17 1016.8 - 0.0 - - - - - - -
24/07:30am 10.2 NE 15 17 1016.9 - 0.0 - Partly cloudy - - - - -
24/07:00am 10.8 NE 13 16 1017.0 - 0.0 - Partly cloudy - - - - -
24/06:30am 10.6 ENE 16 20 1016.6 - 0.0 - - - - - - -
24/06:00am 9.8 E 13 15 1016.7 - 0.0 - - - - - - -
24/05:30am 9.7 ENE 13 15 1016.7 - 0.0 - - - - - - -
24/05:00am 10.5 ENE 16 19 1016.8 - 0.0 - - - - - - -
24/04:30am 10.5 ENE 17 21 1016.9 - 0.0 - - - - - - -
24/04:00am 10.4 ENE 15 18 1017.2 - 0.0 - - - - - - -
24/03:30am 10.3 ENE 15 18 1017.2 - 0.0 - Partly cloudy - - - - -
24/03:00am 9.9 ENE 14 17 1017.6 - 0.0 - Cloudy - - - - -
24/02:30am 10.3 ENE 16 20 1017.5 - 0.0 - - - - - - -
24/02:00am 10.1 ENE 16 19 1017.7 - 0.0 - Partly cloudy - - - - -
24/01:30am 9.8 ENE 15 18 1017.8 - 0.0 - - - - - - -
24/01:00am 9.9 ENE 16 19 1018.1 - 0.0 - - - - - - -
24/12:30am 9.8 ENE 17 21 1018.2 - 0.0 - - - - - - -
24/12:00am 9.7 ENE 17 23 1018.5 - 0.0 - Mostly clear - - - - -
 
Date/Time
EST
Temp

°C
Wind Pressure Rain
since 9am
mm
Weather Cloud Vis
km
Sea
Height
m
Swell
Dir
 
Speed
knots
Gust
knots
hPa Trend Height
m
Period
s
Dir
23/11:30pm 9.7 ENE 17 21 1018.8 - 0.0 - - - - - - -
23/11:00pm 9.5 ENE 15 20 1019.2 - 0.0 - - - - - - -
23/10:30pm 9.6 ENE 16 19 1019.2 - 0.0 - - - - - - -
23/10:00pm 9.7 ENE 15 18 1019.8 - 0.0 - Partly cloudy - - - - -
23/09:30pm 9.4 ENE 14 17 1019.9 - 0.0 - Partly cloudy - - - - -
23/09:00pm 9.5 ENE 14 18 1020.3 - 0.0 - Cloudy - - - - -
23/08:30pm 9.2 NE 12 15 1020.3 - 0.0 - Partly cloudy - - - - -
23/08:00pm 9.1 NE 11 14 1020.4 - 0.0 - Partly cloudy - - - - -
23/07:30pm 8.8 ENE 12 14 1020.2 - 0.0 - - - - - - -
23/07:00pm 8.8 ENE 11 14 1020.3 - 0.0 - Partly cloudy - - - - -
23/06:30pm 9.0 NE 11 13 1020.2 - 0.0 - Partly cloudy - - - - -
23/06:00pm 9.2 NE 11 13 1020.4 - 0.0 - Mostly cloudy - - - - -
23/05:30pm 8.9 ENE 9 10 1020.1 - 0.0 - Partly cloudy - - - - -
23/05:00pm 8.8 ENE 9 11 1020.4 - 0.0 - Partly cloudy - - - - -
23/04:30pm 9.6 ENE 11 13 1020.2 - 0.0 - Partly cloudy - - - - -
23/04:00pm 10.2 ENE 11 14 1020.5 - 0.0 - Partly cloudy - - - - -
23/03:30pm 10.8 ENE 13 15 1020.3 - 0.0 - Partly cloudy - - - - -
23/03:00pm 11.4 ENE 12 15 1020.6 - 0.0 - - - - - - -
23/02:30pm 11.3 ENE 12 15 1020.6 - 0.0 - - - - - - -
23/02:00pm 11.8 ENE 12 15 1020.9 - 0.0 - - - - - - -
23/01:30pm 11.6 ENE 13 15 1021.1 - 0.0 - - - - - - -
23/01:00pm 11.6 ENE 13 16 1021.6 - 0.0 - - - - - - -
23/12:43pm 11.9 ENE 11 15 1022.0 - 0.0 - Partly cloudy - - - - -
23/12:30pm 11.8 ENE 11 15 1022.2 - 0.0 - Partly cloudy - - - - -
23/12:00pm 11.2 E 9 13 1022.7 - 0.0 - Cloudy - - - - -
23/11:52am 11.3 E 9 11 1022.7 - 0.0 - Partly cloudy - - - - -
23/11:30am 11.0 ENE 10 13 1023.0 - 0.0 - Partly cloudy - - - - -
23/11:00am 10.5 ENE 8 10 1023.7 - 0.0 - - - - - - -
23/10:30am 9.7 E 7 9 1023.5 - 0.0 - - - - - - -
23/10:00am 8.8 E 8 9 1023.8 - 0.0 - - - - - - -
23/09:30am 8.5 ENE 8 10 1023.8 - 0.0 - - - - - - -
23/09:00am 7.4 E 10 11 1023.9 - 0.4 - - - - - - -
23/08:30am 6.5 E 9 10 1023.8 - 0.4 - - - - - - -
23/08:00am 6.8 ENE 7 8 1024.0 - 0.4 - - - - - - -
23/07:30am 6.8 ENE 7 8 1023.7 - 0.4 - - - - - - -
23/07:00am 7.1 ENE 7 8 1023.7 - 0.4 - - - - - - -
23/06:30am 6.5 E 7 8 1023.4 - 0.4 - - - - - - -
23/06:00am 6.3 E 7 8 1023.5 - 0.4 Rain - - - - - -
23/05:30am 7.3 E 6 7 1023.5 - 0.2 - - - - - - -
23/05:00am 7.3 E 6 7 1023.6 - 0.0 - - - - - - -
23/04:30am 7.4 N 4 6 1023.7 - 0.0 - - - - - - -
23/04:00am 7.6 N 5 6 1023.9 - 0.0 - Partly cloudy - - - - -
23/03:30am 7.5 N 4 5 1024.0 - 0.0 - - - - - - -
23/03:00am 7.7 N 5 5 1024.2 - 0.0 - - - - - - -
23/02:30am 7.6 N 5 6 1024.4 - 0.0 - Partly cloudy - - - - -
23/02:00am 8.4 N 4 5 1024.5 - 0.0 - Partly cloudy - - - - -
23/01:30am 8.5 N 6 7 1024.3 - 0.0 - Partly cloudy - - - - -
23/01:00am 8.4 N 7 7 1024.4 - 0.0 - - - - - - -
23/12:30am 8.5 N 7 8 1024.2 - 0.0 - - - - - - -
23/12:00am 8.7 N 5 6 1024.4 - 0.0 - - - - - - -
 
Date/Time
EST
Temp

°C
Wind Pressure Rain
since 9am
mm
Weather Cloud Vis
km
Sea
Height
m
Swell
Dir
 
Speed
knots
Gust
knots
hPa Trend Height
m
Period
s
Dir
22/11:30pm 9.0 N 4 5 1024.5 - 0.0 - - - - - - -
22/11:00pm 9.0 N 5 5 1024.9 - 0.0 - - - - - - -
22/10:30pm 9.1 N 4 5 1024.9 - 0.0 - - - - - - -
22/10:00pm 8.8 N 5 5 1025.0 - 0.0 - - - - - - -
22/09:30pm 8.8 N 5 6 1025.0 - 0.0 - - - - - - -
22/09:00pm 9.1 N 6 6 1025.1 - 0.0 - - - - - - -
22/08:30pm 9.0 N 6 6 1024.8 - 0.0 - - - - - - -
22/08:00pm 9.2 N 5 6 1024.8 - 0.0 - - - - - - -
22/07:30pm 9.2 N 5 6 1024.7 - 0.0 - - - - - - -
22/07:00pm 9.5 N 5 5 1024.9 - 0.0 - - - - - - -
22/06:30pm 10.0 N 5 5 1024.6 - 0.0 - - - - - - -
22/06:00pm 10.0 N 4 5 1024.6 - 0.0 - Mostly cloudy - - - - -
22/05:30pm 10.1 N 4 5 1024.5 - 0.0 - - - - - - -
22/05:00pm 10.5 N 5 6 1024.6 - 0.0 - - - - - - -
22/04:30pm 11.1 N 4 5 1024.4 - 0.0 - - - - - - -
22/04:00pm 11.5 N 5 6 1024.5 - 0.0 - - - - - - -
22/03:30pm 12.0 N 6 7 1024.4 - 0.0 - - - - - - -
22/03:00pm 12.0 NNE 5 6 1024.6 - 0.0 - Mostly cloudy - - - - -
22/02:30pm 10.8 NNE 5 6 1024.5 - 0.0 - - - - - - -
22/02:00pm 11.1 NNE 6 7 1024.7 - 0.0 - - - - - - -
22/01:30pm 11.7 N 9 11 1024.5 - 0.0 - Partly cloudy - - - - -
22/01:00pm 12.3 NE 6 9 1025.1 - 0.0 - Partly cloudy - - - - -
22/12:30pm 12.2 NNE 5 7 1025.5 - 0.0 - - - - - - -
22/12:00pm 12.2 ENE 5 8 1026.1 - 0.0 - Mostly clear - - - - -
22/11:30am 12.1 ENE 6 8 1026.3 - 0.0 - - - - - - -
22/11:00am 11.7 NE 7 9 1026.5 - 0.0 - - - - - - -
22/10:30am 11.3 ENE 8 10 1026.2 - 0.0 - Partly cloudy - - - - -
22/10:00am 9.8 ENE 7 9 1026.5 - 0.0 - Cloudy - - - - -
22/09:30am 9.6 E 9 10 1026.4 - 0.0 - Cloudy - - - - -
22/09:00am 8.2 E 9 11 1026.4 - 0.2 - Mostly clear - - - - -
22/08:30am 7.2 E 9 10 1026.3 - 0.2 - Partly cloudy - - - - -
22/08:00am 6.2 E 9 10 1025.9 - 0.2 - - - - - - -
22/07:30am 5.8 E 10 11 1025.5 - 0.2 - - - - - - -
22/07:00am 5.8 E 10 11 1025.4 - 0.2 - - - - - - -
22/06:30am 5.8 E 10 10 1025.0 - 0.0 - - - - - - -
22/06:00am 6.4 E 9 9 1025.0 - 0.0 - - - - - - -
22/05:30am 6.2 E 8 9 1024.6 - 0.0 - - - - - - -
22/05:00am 6.8 E 7 9 1024.7 - 0.0 - - - - - - -
22/04:30am 7.3 ENE 8 9 1024.6 - 0.0 - - - - - - -
22/04:00am 7.1 ENE 8 8 1024.8 - 0.0 - - - - - - -
22/03:30am 6.8 ENE 7 8 1024.8 - 0.0 - - - - - - -
22/03:00am 6.6 E 11 11 1024.9 - 0.0 - - - - - - -
22/02:30am 7.0 ENE 6 7 1025.0 - 0.0 - - - - - - -
22/02:00am 7.8 ENE 4 5 1025.0 - 0.0 - Partly cloudy - - - - -
22/01:30am 8.3 ENE 4 5 1025.0 - 0.0 - Partly cloudy - - - - -
22/01:00am 7.8 ENE 6 8 1025.2 - 0.0 - Partly cloudy - - - - -
22/12:30am 7.9 E 7 8 1025.1 - 0.0 - Partly cloudy - - - - -
22/12:00am 7.5 E 6 7 1025.6 - 0.0 - Mostly cloudy - - - - -
 
Date/Time
EST
Temp

°C
Wind Pressure Rain
since 9am
mm
Weather Cloud Vis
km
Sea
Height
m
Swell
Dir
 
Speed
knots
Gust
knots
hPa Trend Height
m
Period
s
Dir
21/11:30pm 7.5 E 6 6 1025.6 - 0.0 - Partly cloudy - - - - -
21/11:00pm 6.7 E 9 11 1025.6 - 0.0 - Partly cloudy - - - - -
21/10:30pm 8.1 E 8 8 1025.7 - 0.0 - Cloudy - - - - -
21/10:00pm 8.2 E 9 9 1025.7 - 0.0 - Cloudy - - - - -
21/09:30pm 8.2 E 8 9 1025.5 - 0.0 - Cloudy - - - - -
21/09:00pm 7.8 E 8 9 1025.6 - 0.0 - Mostly clear - - - - -
21/08:30pm 7.8 E 9 9 1025.4 - 0.0 - - - - - - -
21/08:00pm 8.2 E 9 10 1025.6 - 0.0 - Partly cloudy - - - - -
21/07:30pm 8.7 E 8 9 1025.5 - 0.0 - Partly cloudy - - - - -
21/07:00pm 8.6 E 8 9 1025.4 - 0.0 - Partly cloudy - - - - -
21/06:30pm 8.6 E 10 11 1025.0 - 0.0 - - - - - - -
21/06:00pm 9.2 ENE 10 12 1024.9 - 0.0 - Cloudy - - - - -
21/05:30pm 9.5 ENE 11 13 1024.8 - 0.0 - Partly cloudy - - - - -
21/05:00pm 9.8 ENE 9 11 1025.0 - 0.0 - Cloudy - - - - -
21/04:30pm 9.9 ENE 9 11 1024.6 - 0.0 - Partly cloudy - - - - -
21/04:00pm 10.6 ENE 10 12 1024.6 - 0.0 - Partly cloudy - - - - -
21/03:30pm 11.2 ENE 10 13 1024.6 - 0.0 - Partly cloudy - - - - -
21/03:00pm 11.0 ENE 10 12 1024.6 - 0.0 - Mostly cloudy - - - - -
21/02:30pm 10.8 ENE 11 13 1024.4 - 0.0 - Partly cloudy - - - - -

Other Formats:

Comma delimited format used in spreadsheet applications
http://www.bom.gov.au/fwo/IDV60701/IDV60701.95954.axf

JavaScript Object Notation format (JSON) in row-major order
http://www.bom.gov.au/fwo/IDV60701/IDV60701.95954.json